sensor_id;sensor_type;location;lat;lon;timestamp;pressure;altitude;pressure_sealevel;temperature;humidity
7662;BME280;30314;48.184;11.510;2023-11-19T00:00:07;96011.19;;;4.15;100.00
7662;BME280;30314;48.184;11.510;2023-11-19T00:02:38;96012.22;;;4.14;100.00
7662;BME280;30314;48.184;11.510;2023-11-19T00:05:06;96016.03;;;4.23;100.00
7662;BME280;30314;48.184;11.510;2023-11-19T00:07:35;95998.50;;;4.23;100.00
7662;BME280;30314;48.184;11.510;2023-11-19T00:10:03;95989.56;;;4.19;100.00
7662;BME280;30314;48.184;11.510;2023-11-19T00:12:33;95968.03;;;4.12;100.00
7662;BME280;30314;48.184;11.510;2023-11-19T00:15:00;95974.47;;;4.27;100.00
7662;BME280;30314;48.184;11.510;2023-11-19T00:17:26;95966.59;;;4.21;100.00
7662;BME280;30314;48.184;11.510;2023-11-19T00:19:53;95960.88;;;4.25;100.00
7662;BME280;30314;48.184;11.510;2023-11-19T00:22:20;95966.63;;;4.27;100.00
7662;BME280;30314;48.184;11.510;2023-11-19T00:24:48;95962.53;;;4.31;100.00
7662;BME280;30314;48.184;11.510;2023-11-19T00:27:15;95967.41;;;4.44;100.00
7662;BME280;30314;48.184;11.510;2023-11-19T00:29:42;95961.31;;;4.39;100.00
7662;BME280;30314;48.184;11.510;2023-11-19T00:32:11;95966.53;;;4.39;100.00
7662;BME280;30314;48.184;11.510;2023-11-19T00:34:38;95964.28;;;4.47;100.00
7662;BME280;30314;48.184;11.510;2023-11-19T00:37:05;95946.72;;;4.43;100.00
7662;BME280;30314;48.184;11.510;2023-11-19T00:39:32;95954.06;;;4.46;100.00
7662;BME280;30314;48.184;11.510;2023-11-19T00:41:58;95955.94;;;4.50;100.00
7662;BME280;30314;48.184;11.510;2023-11-19T00:44:25;95947.88;;;4.52;100.00
7662;BME280;30314;48.184;11.510;2023-11-19T00:46:51;95938.78;;;4.60;100.00
7662;BME280;30314;48.184;11.510;2023-11-19T00:49:18;95944.56;;;4.62;100.00
7662;BME280;30314;48.184;11.510;2023-11-19T00:51:44;95926.31;;;4.67;100.00
7662;BME280;30314;48.184;11.510;2023-11-19T00:54:12;95932.03;;;4.64;100.00
7662;BME280;30314;48.184;11.510;2023-11-19T00:56:38;95924.25;;;4.69;100.00
7662;BME280;30314;48.184;11.510;2023-11-19T00:59:06;95922.72;;;4.73;100.00
7662;BME280;30314;48.184;11.510;2023-11-19T01:01:33;95921.69;;;4.74;100.00
7662;BME280;30314;48.184;11.510;2023-11-19T01:03:59;95909.09;;;4.71;100.00
7662;BME280;30314;48.184;11.510;2023-11-19T01:06:27;95915.94;;;4.77;100.00
7662;BME280;30314;48.184;11.510;2023-11-19T01:08:55;95909.69;;;4.78;100.00
7662;BME280;30314;48.184;11.510;2023-11-19T01:11:23;95910.22;;;4.81;100.00
7662;BME280;30314;48.184;11.510;2023-11-19T01:13:50;95896.13;;;4.82;100.00
7662;BME280;30314;48.184;11.510;2023-11-19T01:16:18;95892.50;;;4.88;100.00
7662;BME280;30314;48.184;11.510;2023-11-19T01:18:47;95905.59;;;4.88;100.00
7662;BME280;30314;48.184;11.510;2023-11-19T01:21:15;95905.09;;;4.91;100.00
7662;BME280;30314;48.184;11.510;2023-11-19T01:23:42;95900.94;;;4.95;100.00
7662;BME280;30314;48.184;11.510;2023-11-19T01:26:12;95902.53;;;4.96;100.00
7662;BME280;30314;48.184;11.510;2023-11-19T01:28:39;95898.59;;;4.99;100.00
7662;BME280;30314;48.184;11.510;2023-11-19T01:31:17;95888.13;;;4.99;100.00
7662;BME280;30314;48.184;11.510;2023-11-19T01:33:44;95886.34;;;5.04;100.00
7662;BME280;30314;48.184;11.510;2023-11-19T01:36:14;95891.97;;;5.18;100.00
7662;BME280;30314;48.184;11.510;2023-11-19T01:38:41;95884.34;;;5.12;100.00
7662;BME280;30314;48.184;11.510;2023-11-19T01:41:08;95874.91;;;5.11;100.00
7662;BME280;30314;48.184;11.510;2023-11-19T01:43:36;95882.34;;;5.24;100.00
7662;BME280;30314;48.184;11.510;2023-11-19T01:46:05;95878.97;;;5.29;100.00
7662;BME280;30314;48.184;11.510;2023-11-19T01:48:37;95870.91;;;5.35;100.00
7662;BME280;30314;48.184;11.510;2023-11-19T01:51:08;95869.34;;;5.40;100.00
7662;BME280;30314;48.184;11.510;2023-11-19T01:53:37;95872.28;;;5.48;100.00
7662;BME280;30314;48.184;11.510;2023-11-19T01:56:07;95877.22;;;5.45;100.00
7662;BME280;30314;48.184;11.510;2023-11-19T01:58:38;95858.94;;;5.50;100.00
7662;BME280;30314;48.184;11.510;2023-11-19T02:01:06;95843.72;;;5.47;100.00
7662;BME280;30314;48.184;11.510;2023-11-19T02:03:34;95863.91;;;5.52;100.00
7662;BME280;30314;48.184;11.510;2023-11-19T02:06:01;95843.72;;;5.47;100.00
7662;BME280;30314;48.184;11.510;2023-11-19T02:08:29;95845.63;;;5.57;100.00
7662;BME280;30314;48.184;11.510;2023-11-19T02:10:56;95841.47;;;5.66;100.00
7662;BME280;30314;48.184;11.510;2023-11-19T02:13:27;95844.13;;;5.76;100.00
7662;BME280;30314;48.184;11.510;2023-11-19T02:15:55;95837.56;;;5.74;100.00
7662;BME280;30314;48.184;11.510;2023-11-19T02:18:24;95824.75;;;5.72;100.00
7662;BME280;30314;48.184;11.510;2023-11-19T02:20:55;95825.78;;;5.76;100.00
7662;BME280;30314;48.184;11.510;2023-11-19T02:23:22;95820.31;;;5.78;100.00
7662;BME280;30314;48.184;11.510;2023-11-19T02:28:44;95805.13;;;5.80;100.00
7662;BME280;30314;48.184;11.510;2023-11-19T02:31:12;95797.00;;;5.82;100.00
7662;BME280;30314;48.184;11.510;2023-11-19T02:33:39;95799.06;;;5.80;100.00
7662;BME280;30314;48.184;11.510;2023-11-19T02:36:07;95789.91;;;5.77;100.00
7662;BME280;30314;48.184;11.510;2023-11-19T02:38:34;95794.91;;;5.84;100.00
7662;BME280;30314;48.184;11.510;2023-11-19T02:41:06;95791.50;;;5.83;100.00
7662;BME280;30314;48.184;11.510;2023-11-19T02:43:34;95791.78;;;5.82;100.00
7662;BME280;30314;48.184;11.510;2023-11-19T02:46:03;95787.88;;;5.89;100.00
7662;BME280;30314;48.184;11.510;2023-11-19T02:48:36;95785.50;;;5.93;100.00
7662;BME280;30314;48.184;11.510;2023-11-19T02:51:05;95771.91;;;5.96;100.00
7662;BME280;30314;48.184;11.510;2023-11-19T02:53:36;95765.84;;;5.96;100.00
7662;BME280;30314;48.184;11.510;2023-11-19T02:56:07;95764.84;;;6.02;100.00
7662;BME280;30314;48.184;11.510;2023-11-19T02:58:52;95761.66;;;6.00;100.00
7662;BME280;30314;48.184;11.510;2023-11-19T03:01:25;95763.78;;;6.08;100.00
7662;BME280;30314;48.184;11.510;2023-11-19T03:04:00;95759.34;;;6.09;100.00
7662;BME280;30314;48.184;11.510;2023-11-19T03:06:28;95758.03;;;6.11;100.00
7662;BME280;30314;48.184;11.510;2023-11-19T03:08:55;95759.88;;;6.11;100.00
7662;BME280;30314;48.184;11.510;2023-11-19T03:11:22;95749.13;;;6.17;100.00
7662;BME280;30314;48.184;11.510;2023-11-19T03:13:48;95743.88;;;6.17;100.00
7662;BME280;30314;48.184;11.510;2023-11-19T03:16:15;95740.75;;;6.26;100.00
7662;BME280;30314;48.184;11.510;2023-11-19T03:18:43;95749.16;;;6.38;100.00
7662;BME280;30314;48.184;11.510;2023-11-19T03:21:10;95750.22;;;6.58;100.00
7662;BME280;30314;48.184;11.510;2023-11-19T03:23:37;95752.84;;;6.63;100.00
7662;BME280;30314;48.184;11.510;2023-11-19T03:26:03;95747.09;;;6.71;100.00
7662;BME280;30314;48.184;11.510;2023-11-19T03:28:32;95730.81;;;6.90;100.00
7662;BME280;30314;48.184;11.510;2023-11-19T03:30:59;95735.53;;;6.93;100.00
7662;BME280;30314;48.184;11.510;2023-11-19T03:33:25;95740.00;;;6.93;100.00
7662;BME280;30314;48.184;11.510;2023-11-19T03:35:56;95743.16;;;6.95;100.00
7662;BME280;30314;48.184;11.510;2023-11-19T03:38:24;95743.41;;;6.98;100.00
7662;BME280;30314;48.184;11.510;2023-11-19T03:40:53;95750.50;;;7.03;100.00
7662;BME280;30314;48.184;11.510;2023-11-19T03:43:20;95747.59;;;7.04;100.00
7662;BME280;30314;48.184;11.510;2023-11-19T03:45:46;95748.59;;;7.29;100.00
7662;BME280;30314;48.184;11.510;2023-11-19T03:48:13;95746.25;;;7.23;100.00
7662;BME280;30314;48.184;11.510;2023-11-19T03:50:43;95753.84;;;7.29;100.00
7662;BME280;30314;48.184;11.510;2023-11-19T03:53:11;95757.47;;;7.49;100.00
7662;BME280;30314;48.184;11.510;2023-11-19T03:55:38;95756.94;;;7.52;100.00
7662;BME280;30314;48.184;11.510;2023-11-19T03:58:04;95748.25;;;7.57;100.00
7662;BME280;30314;48.184;11.510;2023-11-19T04:00:32;95743.50;;;7.59;100.00
7662;BME280;30314;48.184;11.510;2023-11-19T04:02:58;95743.75;;;7.68;100.00
7662;BME280;30314;48.184;11.510;2023-11-19T04:05:25;95747.59;;;7.86;100.00
7662;BME280;30314;48.184;11.510;2023-11-19T04:07:51;95738.91;;;7.91;100.00
7662;BME280;30314;48.184;11.510;2023-11-19T04:10:18;95742.53;;;8.05;100.00
7662;BME280;30314;48.184;11.510;2023-11-19T04:12:45;95738.81;;;8.06;100.00
7662;BME280;30314;48.184;11.510;2023-11-19T04:15:12;95750.88;;;8.12;100.00
7662;BME280;30314;48.184;11.510;2023-11-19T04:17:38;95742.97;;;8.17;100.00
7662;BME280;30314;48.184;11.510;2023-11-19T04:20:06;95749.03;;;8.13;100.00
7662;BME280;30314;48.184;11.510;2023-11-19T04:23:02;95748.75;;;8.20;100.00
7662;BME280;30314;48.184;11.510;2023-11-19T04:25:28;95755.31;;;8.17;100.00
7662;BME280;30314;48.184;11.510;2023-11-19T04:27:55;95756.59;;;8.25;100.00
7662;BME280;30314;48.184;11.510;2023-11-19T04:30:22;95749.00;;;8.23;100.00
7662;BME280;30314;48.184;11.510;2023-11-19T04:32:50;95745.75;;;8.31;100.00
7662;BME280;30314;48.184;11.510;2023-11-19T04:35:16;95751.28;;;8.35;100.00
7662;BME280;30314;48.184;11.510;2023-11-19T04:37:43;95758.97;;;8.26;100.00
7662;BME280;30314;48.184;11.510;2023-11-19T04:40:10;95754.50;;;8.27;100.00
7662;BME280;30314;48.184;11.510;2023-11-19T04:42:38;95749.19;;;8.32;100.00
7662;BME280;30314;48.184;11.510;2023-11-19T04:45:08;95746.56;;;8.32;100.00
7662;BME280;30314;48.184;11.510;2023-11-19T04:47:37;95748.09;;;8.38;100.00
7662;BME280;30314;48.184;11.510;2023-11-19T04:50:04;95755.00;;;8.29;100.00
7662;BME280;30314;48.184;11.510;2023-11-19T04:52:30;95738.63;;;8.37;100.00
7662;BME280;30314;48.184;11.510;2023-11-19T04:54:57;95756.53;;;8.35;100.00
7662;BME280;30314;48.184;11.510;2023-11-19T04:57:24;95748.06;;;8.43;100.00
7662;BME280;30314;48.184;11.510;2023-11-19T04:59:50;95758.34;;;8.40;100.00
7662;BME280;30314;48.184;11.510;2023-11-19T05:02:17;95756.22;;;8.42;100.00
7662;BME280;30314;48.184;11.510;2023-11-19T05:04:43;95761.28;;;8.33;100.00
7662;BME280;30314;48.184;11.510;2023-11-19T05:07:16;95759.88;;;8.46;100.00
7662;BME280;30314;48.184;11.510;2023-11-19T05:09:42;95770.66;;;8.50;100.00
7662;BME280;30314;48.184;11.510;2023-11-19T05:12:09;95764.81;;;8.58;100.00
7662;BME280;30314;48.184;11.510;2023-11-19T05:14:38;95753.28;;;8.54;100.00
7662;BME280;30314;48.184;11.510;2023-11-19T05:17:05;95761.44;;;8.52;100.00
7662;BME280;30314;48.184;11.510;2023-11-19T05:19:31;95782.25;;;8.49;100.00
7662;BME280;30314;48.184;11.510;2023-11-19T05:21:58;95781.16;;;8.55;100.00
7662;BME280;30314;48.184;11.510;2023-11-19T05:24:24;95777.47;;;8.56;100.00
7662;BME280;30314;48.184;11.510;2023-11-19T05:26:51;95779.03;;;8.57;100.00
7662;BME280;30314;48.184;11.510;2023-11-19T05:29:18;95789.59;;;8.52;100.00
7662;BME280;30314;48.184;11.510;2023-11-19T05:31:45;95791.16;;;8.53;100.00
7662;BME280;30314;48.184;11.510;2023-11-19T05:34:11;95790.66;;;8.51;100.00
7662;BME280;30314;48.184;11.510;2023-11-19T05:36:38;95780.63;;;8.53;100.00
7662;BME280;30314;48.184;11.510;2023-11-19T05:39:06;95781.13;;;8.60;100.00
7662;BME280;30314;48.184;11.510;2023-11-19T05:41:32;95787.88;;;8.71;100.00
7662;BME280;30314;48.184;11.510;2023-11-19T05:43:59;95778.91;;;8.72;100.00
7662;BME280;30314;48.184;11.510;2023-11-19T05:46:26;95772.13;;;8.66;100.00
7662;BME280;30314;48.184;11.510;2023-11-19T05:48:53;95786.34;;;8.65;100.00
7662;BME280;30314;48.184;11.510;2023-11-19T05:51:20;95780.88;;;8.56;100.00
7662;BME280;30314;48.184;11.510;2023-11-19T05:53:47;95786.63;;;8.64;100.00
7662;BME280;30314;48.184;11.510;2023-11-19T05:56:15;95779.44;;;8.74;100.00
7662;BME280;30314;48.184;11.510;2023-11-19T05:58:42;95762.63;;;8.65;100.00
7662;BME280;30314;48.184;11.510;2023-11-19T06:01:11;95775.72;;;8.81;100.00
7662;BME280;30314;48.184;11.510;2023-11-19T06:03:37;95770.69;;;8.79;100.00
7662;BME280;30314;48.184;11.510;2023-11-19T06:06:06;95773.06;;;8.81;100.00
7662;BME280;30314;48.184;11.510;2023-11-19T06:08:32;95765.25;;;8.70;100.00
7662;BME280;30314;48.184;11.510;2023-11-19T06:10:59;95774.22;;;8.69;100.00
7662;BME280;30314;48.184;11.510;2023-11-19T06:13:27;95780.53;;;8.68;100.00
7662;BME280;30314;48.184;11.510;2023-11-19T06:15:58;95787.88;;;8.71;100.00
7662;BME280;30314;48.184;11.510;2023-11-19T06:18:24;95785.94;;;8.82;100.00
7662;BME280;30314;48.184;11.510;2023-11-19T06:20:51;95781.50;;;8.78;100.00
7662;BME280;30314;48.184;11.510;2023-11-19T06:23:18;95771.78;;;8.78;100.00
7662;BME280;30314;48.184;11.510;2023-11-19T06:25:46;95768.91;;;8.74;100.00
7662;BME280;30314;48.184;11.510;2023-11-19T06:28:12;95784.44;;;8.71;100.00
7662;BME280;30314;48.184;11.510;2023-11-19T06:30:39;95772.59;;;8.73;100.00
7662;BME280;30314;48.184;11.510;2023-11-19T06:33:07;95790.50;;;8.71;100.00
7662;BME280;30314;48.184;11.510;2023-11-19T06:35:34;95770.69;;;8.79;100.00
7662;BME280;30314;48.184;11.510;2023-11-19T06:38:04;95781.16;;;8.90;100.00
7662;BME280;30314;48.184;11.510;2023-11-19T06:40:32;95768.25;;;8.88;100.00
7662;BME280;30314;48.184;11.510;2023-11-19T06:42:59;95784.31;;;8.92;100.00
7662;BME280;30314;48.184;11.510;2023-11-19T06:45:26;95774.84;;;8.91;100.00
7662;BME280;30314;48.184;11.510;2023-11-19T06:47:53;95776.13;;;8.93;100.00
7662;BME280;30314;48.184;11.510;2023-11-19T06:50:19;95778.88;;;8.78;100.00
7662;BME280;30314;48.184;11.510;2023-11-19T06:52:46;95791.69;;;8.90;100.00
7662;BME280;30314;48.184;11.510;2023-11-19T06:55:13;95790.34;;;8.92;100.00
7662;BME280;30314;48.184;11.510;2023-11-19T06:57:40;95782.34;;;9.02;100.00
7662;BME280;30314;48.184;11.510;2023-11-19T07:00:07;95780.59;;;8.93;100.00
7662;BME280;30314;48.184;11.510;2023-11-19T07:02:34;95787.34;;;9.04;100.00
7662;BME280;30314;48.184;11.510;2023-11-19T07:05:02;95796.44;;;9.17;100.00
7662;BME280;30314;48.184;11.510;2023-11-19T07:07:31;95779.91;;;9.11;100.00
7662;BME280;30314;48.184;11.510;2023-11-19T07:09:59;95800.72;;;9.13;100.00
7662;BME280;30314;48.184;11.510;2023-11-19T07:12:25;95795.22;;;9.09;100.00
7662;BME280;30314;48.184;11.510;2023-11-19T07:14:53;95805.66;;;9.20;100.00
7662;BME280;30314;48.184;11.510;2023-11-19T07:17:19;95804.16;;;9.13;100.00
7662;BME280;30314;48.184;11.510;2023-11-19T07:19:49;95801.22;;;9.15;100.00
7662;BME280;30314;48.184;11.510;2023-11-19T07:22:15;95804.34;;;9.22;100.00
7662;BME280;30314;48.184;11.510;2023-11-19T07:24:42;95799.03;;;9.27;100.00
7662;BME280;30314;48.184;11.510;2023-11-19T07:27:09;95808.28;;;9.25;100.00
7662;BME280;30314;48.184;11.510;2023-11-19T07:29:36;95806.69;;;9.24;100.00
7662;BME280;30314;48.184;11.510;2023-11-19T07:32:05;95800.94;;;9.22;100.00
7662;BME280;30314;48.184;11.510;2023-11-19T07:34:31;95815.91;;;9.26;100.00
7662;BME280;30314;48.184;11.510;2023-11-19T07:36:58;95818.28;;;9.28;100.00
7662;BME280;30314;48.184;11.510;2023-11-19T07:39:29;95820.91;;;9.28;100.00
7662;BME280;30314;48.184;11.510;2023-11-19T07:41:55;95831.22;;;9.24;100.00
7662;BME280;30314;48.184;11.510;2023-11-19T07:44:22;95832.94;;;9.39;100.00
7662;BME280;30314;48.184;11.510;2023-11-19T07:46:48;95833.16;;;9.43;100.00
7662;BME280;30314;48.184;11.510;2023-11-19T07:49:15;95837.47;;;9.34;100.00
7662;BME280;30314;48.184;11.510;2023-11-19T07:51:42;95837.72;;;9.32;100.00
7662;BME280;30314;48.184;11.510;2023-11-19T07:54:09;95842.91;;;9.42;100.00
7662;BME280;30314;48.184;11.510;2023-11-19T07:56:35;95844.19;;;9.45;100.00
7662;BME280;30314;48.184;11.510;2023-11-19T07:59:02;95833.19;;;9.38;100.00
7662;BME280;30314;48.184;11.510;2023-11-19T08:01:29;95850.00;;;9.47;100.00
7662;BME280;30314;48.184;11.510;2023-11-19T08:03:56;95838.16;;;9.44;100.00
7662;BME280;30314;48.184;11.510;2023-11-19T08:06:25;95837.25;;;9.54;100.00
7662;BME280;30314;48.184;11.510;2023-11-19T08:08:52;95834.59;;;9.60;100.00
7662;BME280;30314;48.184;11.510;2023-11-19T08:11:19;95844.84;;;9.61;100.00
7662;BME280;30314;48.184;11.510;2023-11-19T08:13:46;95851.13;;;9.65;100.00
7662;BME280;30314;48.184;11.510;2023-11-19T08:16:13;95850.06;;;9.66;100.00
7662;BME280;30314;48.184;11.510;2023-11-19T08:18:42;95840.97;;;9.78;100.00
7662;BME280;30314;48.184;11.510;2023-11-19T08:21:10;95847.44;;;9.66;100.00
7662;BME280;30314;48.184;11.510;2023-11-19T08:23:37;95839.72;;;9.70;100.00
7662;BME280;30314;48.184;11.510;2023-11-19T08:26:05;95836.09;;;9.66;100.00
7662;BME280;30314;48.184;11.510;2023-11-19T08:28:32;95849.19;;;9.76;100.00
7662;BME280;30314;48.184;11.510;2023-11-19T08:31:01;95849.19;;;9.76;100.00
7662;BME280;30314;48.184;11.510;2023-11-19T08:33:30;95847.09;;;9.73;100.00
7662;BME280;30314;48.184;11.510;2023-11-19T08:35:58;95844.47;;;9.73;100.00
7662;BME280;30314;48.184;11.510;2023-11-19T08:38:25;95859.72;;;9.76;100.00
7662;BME280;30314;48.184;11.510;2023-11-19T08:40:55;95848.94;;;9.72;100.00
7662;BME280;30314;48.184;11.510;2023-11-19T08:43:26;95840.31;;;9.67;100.00
7662;BME280;30314;48.184;11.510;2023-11-19T08:45:53;95833.84;;;9.78;100.00
7662;BME280;30314;48.184;11.510;2023-11-19T08:48:20;95836.66;;;9.87;100.00
7662;BME280;30314;48.184;11.510;2023-11-19T08:50:47;95840.88;;;9.88;100.00
7662;BME280;30314;48.184;11.510;2023-11-19T08:53:13;95853.78;;;9.90;100.00
7662;BME280;30314;48.184;11.510;2023-11-19T08:55:40;95848.75;;;9.93;100.00
7662;BME280;30314;48.184;11.510;2023-11-19T08:58:07;95852.66;;;9.96;100.00
7662;BME280;30314;48.184;11.510;2023-11-19T09:00:33;95831.03;;;9.94;100.00
7662;BME280;30314;48.184;11.510;2023-11-19T09:03:00;95846.25;;;10.02;100.00
7662;BME280;30314;48.184;11.510;2023-11-19T09:05:27;95847.47;;;10.10;100.00
7662;BME280;30314;48.184;11.510;2023-11-19T09:07:54;95852.91;;;10.19;100.00
7662;BME280;30314;48.184;11.510;2023-11-19T09:10:21;95837.19;;;10.08;100.00
7662;BME280;30314;48.184;11.510;2023-11-19T09:12:47;95837.66;;;10.15;100.00
7662;BME280;30314;48.184;11.510;2023-11-19T09:15:14;95835.03;;;10.15;100.00
7662;BME280;30314;48.184;11.510;2023-11-19T09:17:41;95845.06;;;10.13;100.00
7662;BME280;30314;48.184;11.510;2023-11-19T09:20:08;95853.50;;;10.15;100.00
7662;BME280;30314;48.184;11.510;2023-11-19T09:22:38;95852.41;;;10.17;100.00
7662;BME280;30314;48.184;11.510;2023-11-19T09:25:05;95858.16;;;10.43;100.00
7662;BME280;30314;48.184;11.510;2023-11-19T09:27:31;95861.59;;;10.43;100.00
7662;BME280;30314;48.184;11.510;2023-11-19T09:29:58;95861.09;;;10.41;100.00
7662;BME280;30314;48.184;11.510;2023-11-19T09:32:25;95866.91;;;10.38;100.00
7662;BME280;30314;48.184;11.510;2023-11-19T09:34:52;95873.94;;;10.48;100.00
7662;BME280;30314;48.184;11.510;2023-11-19T09:37:18;95876.44;;;10.39;100.00
7662;BME280;30314;48.184;11.510;2023-11-19T09:39:48;95871.94;;;10.40;100.00
7662;BME280;30314;48.184;11.510;2023-11-19T09:42:14;95877.66;;;10.47;100.00
7662;BME280;30314;48.184;11.510;2023-11-19T09:44:42;95867.50;;;10.35;100.00
7662;BME280;30314;48.184;11.510;2023-11-19T09:47:11;95867.50;;;10.35;100.00
7662;BME280;30314;48.184;11.510;2023-11-19T09:49:38;95851.78;;;10.44;100.00
7662;BME280;30314;48.184;11.510;2023-11-19T09:52:05;95850.59;;;10.55;100.00
7662;BME280;30314;48.184;11.510;2023-11-19T09:54:31;95853.47;;;10.59;100.00
7662;BME280;30314;48.184;11.510;2023-11-19T09:56:59;95844.41;;;10.65;100.00
7662;BME280;30314;48.184;11.510;2023-11-19T09:59:30;95847.69;;;10.76;100.00
7662;BME280;30314;48.184;11.510;2023-11-19T10:01:58;95844.09;;;10.86;100.00
7662;BME280;30314;48.184;11.510;2023-11-19T10:04:29;95832.03;;;10.80;100.00
7662;BME280;30314;48.184;11.510;2023-11-19T10:06:56;95835.03;;;10.92;100.00
7662;BME280;30314;48.184;11.510;2023-11-19T10:09:23;95831.31;;;10.93;100.00
7662;BME280;30314;48.184;11.510;2023-11-19T10:11:50;95829.44;;;11.13;100.00
7662;BME280;30314;48.184;11.510;2023-11-19T10:14:20;95823.00;;;11.19;100.00
7662;BME280;30314;48.184;11.510;2023-11-19T10:16:49;95830.53;;;11.12;100.00
7662;BME280;30314;48.184;11.510;2023-11-19T10:19:19;95831.44;;;11.21;100.00
7662;BME280;30314;48.184;11.510;2023-11-19T10:21:49;95822.66;;;11.40;100.00
7662;BME280;30314;48.184;11.510;2023-11-19T10:27:07;95829.03;;;11.67;100.00
7662;BME280;30314;48.184;11.510;2023-11-19T10:29:38;95826.69;;;11.79;100.00
7662;BME280;30314;48.184;11.510;2023-11-19T10:32:04;95820.84;;;11.96;100.00
7662;BME280;30314;48.184;11.510;2023-11-19T10:34:51;95810.94;;;12.02;100.00
7662;BME280;30314;48.184;11.510;2023-11-19T10:37:30;95807.00;;;12.00;100.00
7662;BME280;30314;48.184;11.510;2023-11-19T10:39:58;95811.72;;;11.89;100.00
7662;BME280;30314;48.184;11.510;2023-11-19T10:42:25;95800.34;;;11.88;100.00
7662;BME280;30314;48.184;11.510;2023-11-19T10:44:52;95804.84;;;11.88;100.00
7662;BME280;30314;48.184;11.510;2023-11-19T10:47:19;95801.72;;;12.00;100.00
7662;BME280;30314;48.184;11.510;2023-11-19T10:50:04;95809.59;;;12.27;100.00
7662;BME280;30314;48.184;11.510;2023-11-19T10:52:31;95801.84;;;12.31;100.00
7662;BME280;30314;48.184;11.510;2023-11-19T10:55:00;95806.56;;;12.34;100.00
7662;BME280;30314;48.184;11.510;2023-11-19T10:57:30;95799.81;;;12.28;100.00
7662;BME280;30314;48.184;11.510;2023-11-19T11:00:02;95799.81;;;12.28;100.00
7662;BME280;30314;48.184;11.510;2023-11-19T11:02:33;95800.38;;;12.39;100.00
7662;BME280;30314;48.184;11.510;2023-11-19T11:05:05;95793.41;;;12.66;100.00
7662;BME280;30314;48.184;11.510;2023-11-19T11:07:32;95791.25;;;12.68;100.00
7662;BME280;30314;48.184;11.510;2023-11-19T11:10:07;95785.75;;;12.42;100.00
7662;BME280;30314;48.184;11.510;2023-11-19T11:12:36;95788.63;;;12.31;100.00
7662;BME280;30314;48.184;11.510;2023-11-19T11:15:05;95786.25;;;12.30;100.00
7662;BME280;30314;48.184;11.510;2023-11-19T11:17:33;95789.09;;;12.33;100.00
7662;BME280;30314;48.184;11.510;2023-11-19T11:20:01;95786.22;;;12.44;100.00
7662;BME280;30314;48.184;11.510;2023-11-19T11:22:34;95793.88;;;12.45;100.00
7662;BME280;30314;48.184;11.510;2023-11-19T11:25:32;95780.88;;;12.35;100.00
7662;BME280;30314;48.184;11.510;2023-11-19T11:28:16;95786.19;;;12.21;100.00
7662;BME280;30314;48.184;11.510;2023-11-19T11:31:12;95774.50;;;12.22;100.00
7662;BME280;30314;48.184;11.510;2023-11-19T11:33:55;95777.50;;;12.43;100.00
7662;BME280;30314;48.184;11.510;2023-11-19T11:36:31;95782.88;;;12.52;100.00
7662;BME280;30314;48.184;11.510;2023-11-19T11:39:04;95789.19;;;12.65;100.00
7662;BME280;30314;48.184;11.510;2023-11-19T11:41:34;95775.56;;;12.58;100.00
7662;BME280;30314;48.184;11.510;2023-11-19T11:44:01;95767.28;;;12.50;100.00
7662;BME280;30314;48.184;11.510;2023-11-19T11:49:02;95755.56;;;12.65;100.00
7662;BME280;30314;48.184;11.510;2023-11-19T11:54:26;95770.13;;;12.77;100.00
7662;BME280;30314;48.184;11.510;2023-11-19T12:02:09;95779.50;;;12.74;100.00
7662;BME280;30314;48.184;11.510;2023-11-19T12:04:36;95766.63;;;12.67;100.00
7662;BME280;30314;48.184;11.510;2023-11-19T12:07:12;95767.09;;;12.47;100.00
7662;BME280;30314;48.184;11.510;2023-11-19T12:09:47;95755.13;;;12.49;100.00
7662;BME280;30314;48.184;11.510;2023-11-19T12:12:18;95755.22;;;12.44;100.00
7662;BME280;30314;48.184;11.510;2023-11-19T12:15:08;95761.78;;;12.47;100.00
7662;BME280;30314;48.184;11.510;2023-11-19T12:17:48;95769.56;;;12.66;100.00
7662;BME280;30314;48.184;11.510;2023-11-19T12:20:19;95773.97;;;12.71;100.00
7662;BME280;30314;48.184;11.510;2023-11-19T12:22:51;95764.34;;;12.75;100.00
7662;BME280;30314;48.184;11.510;2023-11-19T12:25:19;95759.66;;;12.72;100.00
7662;BME280;30314;48.184;11.510;2023-11-19T12:27:51;95759.13;;;12.83;100.00
7662;BME280;30314;48.184;11.510;2023-11-19T12:30:22;95744.84;;;12.93;100.00
7662;BME280;30314;48.184;11.510;2023-11-19T12:32:50;95736.28;;;12.96;100.00
7662;BME280;30314;48.184;11.510;2023-11-19T12:35:17;95732.28;;;13.08;100.00
7662;BME280;30314;48.184;11.510;2023-11-19T12:37:45;95730.72;;;13.07;100.00
7662;BME280;30314;48.184;11.510;2023-11-19T12:40:16;95728.56;;;13.09;100.00
7662;BME280;30314;48.184;11.510;2023-11-19T12:42:50;95728.47;;;12.91;100.00
7662;BME280;30314;48.184;11.510;2023-11-19T12:45:17;95724.63;;;12.75;100.00
7662;BME280;30314;48.184;11.510;2023-11-19T12:47:46;95726.72;;;12.87;100.00
7662;BME280;30314;48.184;11.510;2023-11-19T12:50:17;95711.41;;;12.83;100.00
7662;BME280;30314;48.184;11.510;2023-11-19T12:52:57;95714.34;;;12.73;100.00
7662;BME280;30314;48.184;11.510;2023-11-19T12:55:27;95727.84;;;12.94;100.00
7662;BME280;30314;48.184;11.510;2023-11-19T12:57:56;95717.47;;;13.07;100.00
7662;BME280;30314;48.184;11.510;2023-11-19T13:00:25;95726.00;;;13.04;100.00
7662;BME280;30314;48.184;11.510;2023-11-19T13:02:54;95716.16;;;12.95;100.00
7662;BME280;30314;48.184;11.510;2023-11-19T13:05:29;95711.97;;;12.94;100.00
7662;BME280;30314;48.184;11.510;2023-11-19T13:07:59;95715.78;;;13.11;100.00
7662;BME280;30314;48.184;11.510;2023-11-19T13:10:27;95716.78;;;12.92;100.00
7662;BME280;30314;48.184;11.510;2023-11-19T13:13:04;95714.13;;;12.92;100.00
7662;BME280;30314;48.184;11.510;2023-11-19T13:15:32;95715.69;;;12.93;100.00
7662;BME280;30314;48.184;11.510;2023-11-19T13:18:00;95707.13;;;12.96;100.00
7662;BME280;30314;48.184;11.510;2023-11-19T13:20:27;95704.47;;;12.96;100.00